ハルビン の空港の天気 - METARとTAF

ハルビン太平国際空港 ( ZYHB / HRB ) - 中国 黒竜江省ハルビン市
飛行場実況気象(Metar)
観測時間01/22 01:00 CST (01/21 17:00 UTC)
風向・風速南 3m/s
視程7000m
天気現象
なし
気温-27℃
湿度69%
気圧1024hPa
METARZYHB 211700Z 18003MPS 7000 NSC M27/M31 Q1024 NOSIG
過去の天気等 Google飛行場航空写真 Wunderground天気予報

過去48時間のMETAR

飛行場予報(TAF)
発表時間: 1/21 21:05 CST (1/21 13:05 UTC)
予報対象時間: 22日2時 CST ~ 23日2時 CST
風向・風速西 4m/s
視程6,000m
全天の4割程度の雲 雲底高度 910m
TAF ZYHB 211305Z 2118/2218 27004MPS 6000 SCT030 TXM22/06Z TNM33/22Z